• Join FlightAware (Why Join?)
  • Login
  • US Flag 
01:52PM EDT


 

Airport Tracker/Info


-or-


 

Live Flight TrackerFlight Track Log ✈ CES2219 ✈ 29-Aug-2014 ✈ ZSPD / PVG - ZLAN / LHW

Flight Track Log - Related Links

Times and Time Zones

All times are in EDT time to prevent confusion due to time zone crossing. See the CES2219 flight status page for this flight to view local times or setup timezone preferences in your user account.

Time Position Orientation Groundspeed Altitude Reporting Facility
EDT Latitude Longitude Course Direction KTS MPH feet Rate Location/Type
04:49AM 31.1569 121.7880 344° North 142 163 1,300  Level FlightAware ADS-B (ZSSL)
04:49AM 31.1669 121.7846 344° North 139 160 2,000 2,280 Climbing FlightAware ADS-B (ZSSL)
04:49AM 31.1761 121.7812 344° North 137 158 2,500 1,980 Climbing FlightAware ADS-B (ZSSL)
04:50AM 31.1854 121.7779 343° North 140 161 3,000 1,680 Climbing FlightAware ADS-B (ZSSL)
04:50AM 31.1970 121.7733 342° North 155 178 3,500 1,320 Climbing FlightAware ADS-B (ZSSL)
04:50AM 31.2070 121.7694 342° North 176 203 3,800 1,380 Climbing FlightAware ADS-B (ZSSL)
04:51AM 31.2223 121.7636 343° North 195 224 4,200 1,380 Climbing FlightAware ADS-B (ZSSL)
04:51AM 31.2343 121.7591 343° North 215 247 4,500 1,740 Climbing FlightAware ADS-B (ZSSL)
04:51AM 31.2512 121.7529 343° North 239 275 5,100 3,180 Climbing FlightAware ADS-B (ZSSL)
04:52AM 31.2999 121.7349 343° North 247 284 7,700 3,420 Climbing FlightAware ADS-B (ZSSL)
04:52AM 31.3169 121.7287 343° North 253 291 8,500 2,760 Climbing FlightAware ADS-B (ZSSL)
04:52AM 31.3347 121.7220 343° North 269 310 9,100 2,400 Climbing FlightAware ADS-B (ZSSL)
04:53AM 31.3513 121.7157 343° North 279 321 9,700 2,220 Climbing FlightAware ADS-B (ZSSL)
04:55AM 31.5417 121.6336 317° Northwest 347 399 14,700 2,040 Climbing FlightAware ADS-B
04:58AM 31.7632 121.3740 315° West 386 444 20,600 540 Climbing FlightAware ADS-B
05:22AM 31.8117 118.3196 262° West 434 499 30,100 360 Climbing FlightAware ADS-B
05:23AM 31.7897 118.1669 257° West 434 499 30,100  Level FlightAware ADS-B
05:25AM 31.8554 117.9904 294° West  Level Estimated
05:26AM 31.8981 117.8752 294° West  Level Estimated
05:27AM 31.9407 117.7599 294° West  Level Estimated
05:28AM 31.9832 117.6445 293° West  Level Estimated
05:29AM 32.0256 117.5290 293° West  Level Estimated
05:30AM 32.0678 117.4134 293° West  Level Estimated
05:31AM 32.1100 117.2977 293° West  Level Estimated
05:32AM 32.1521 117.1818 293° West  Level Estimated
05:33AM 32.1940 117.0659 293° West  Level Estimated
05:34AM 32.2359 116.9498 293° West  Level Estimated
05:35AM 32.2777 116.8337 293° West  Level Estimated
05:36AM 32.3193 116.7174 293° West  Level Estimated
05:37AM 32.3608 116.6010 293° West  Level Estimated
05:38AM 32.4023 116.4846 293° West  Level Estimated
05:39AM 32.4436 116.3680 293° West  Level Estimated
05:40AM 32.4848 116.2513 293° West  Level Estimated
05:41AM 32.5259 116.1345 293° West  Level Estimated
05:42AM 32.5669 116.0176 293° West  Level Estimated
05:43AM 32.6078 115.9006 293° West  Level Estimated
05:44AM 32.6486 115.7835 292° West  Level Estimated
05:45AM 32.6893 115.6662 292° West  Level Estimated
05:46AM 32.7299 115.5489 292° West  Level Estimated
05:47AM 32.7703 115.4315 292° West  Level Estimated
05:48AM 32.8106 115.3139 292° West  Level Estimated
05:49AM 32.8509 115.1963 292° West  Level Estimated
05:50AM 32.8910 115.0785 292° West  Level Estimated
05:51AM 32.9310 114.9606 292° West  Level Estimated
05:52AM 32.9709 114.8427 292° West  Level Estimated
05:53AM 33.0107 114.7246 292° West  Level Estimated
05:54AM 33.0504 114.6064 292° West  Level Estimated
05:55AM 33.0900 114.4881 292° West  Level Estimated
05:56AM 33.1295 114.3697 292° West  Level Estimated
05:57AM 33.1688 114.2512 292° West  Level Estimated
05:58AM 33.2080 114.1326 292° West  Level Estimated
05:59AM 33.2472 114.0139 292° West  Level Estimated
06:00AM 33.2862 113.8951 291° West  Level Estimated
06:01AM 33.3251 113.7762 291° West  Level Estimated
06:02AM 33.3638 113.6571 291° West  Level Estimated
06:03AM 33.4025 113.5380 291° West  Level Estimated
06:04AM 33.4411 113.4187 291° West  Level Estimated
06:05AM 33.4795 113.2994 291° West  Level Estimated
06:06AM 33.5178 113.1799 291° West  Level Estimated
06:07AM 33.5561 113.0604 291° West  Level Estimated
06:08AM 33.5942 112.9407 291° West  Level Estimated
06:09AM 33.6321 112.8209 291° West  Level Estimated
06:10AM 33.6700 112.7010 291° West  Level Estimated
06:11AM 33.7078 112.5810 291° West  Level Estimated
06:12AM 33.7454 112.4610 291° West  Level Estimated
06:13AM 33.7829 112.3408 291° West  Level Estimated
06:14AM 33.8203 112.2205 291° West  Level Estimated
06:15AM 33.8576 112.1001 290° West  Level Estimated
06:16AM 33.8948 111.9795 290° West  Level Estimated
06:17AM 33.9318 111.8589 290° West  Level Estimated
06:18AM 33.9688 111.7382 290° West  Level Estimated
06:19AM 34.0056 111.6174 290° West  Level Estimated
06:20AM 34.0423 111.4965 290° West  Level Estimated
06:21AM 34.0788 111.3754 290° West  Level Estimated
06:22AM 34.1153 111.2543 290° West  Level Estimated
06:23AM 34.1516 111.1330 290° West  Level Estimated
06:24AM 34.1879 111.0117 290° West  Level Estimated
06:25AM 34.2240 110.8902 290° West  Level Estimated
06:26AM 34.2599 110.7687 290° West  Level Estimated
06:27AM 34.2958 110.6470 290° West  Level Estimated
06:28AM 34.3316 110.5253 290° West  Level Estimated
06:29AM 34.3672 110.4034 290° West  Level Estimated
06:30AM 34.4027 110.2814 289° West  Level Estimated
06:31AM 34.4380 110.1593 289° West  Level Estimated
06:32AM 34.4733 110.0372 289° West  Level Estimated
06:33AM 34.5084 109.9149 289° West  Level Estimated
06:34AM 34.5435 109.7925 289° West  Level Estimated
06:35AM 34.5784 109.6700 289° West  Level Estimated
06:36AM 34.6131 109.5474 289° West  Level Estimated
06:37AM 34.6478 109.4247 289° West  Level Estimated
06:38AM 34.6823 109.3019 289° West  Level Estimated
06:39AM 34.7167 109.1790 289° West  Level Estimated
06:40AM 34.7510 109.0560 289° West  Level Estimated
06:41AM 34.7851 108.9329 289° West  Level Estimated
06:42AM 34.8191 108.8097 289° West  Level Estimated
06:43AM 34.8531 108.6864 289° West  Level Estimated
06:44AM 34.8868 108.5630 288° West  Level Estimated
06:45AM 34.9205 108.4395 288° West  Level Estimated
06:46AM 34.9540 108.3159 288° West  Level Estimated
06:47AM 34.9874 108.1922 288° West  Level Estimated
06:48AM 35.0207 108.0684 288° West  Level Estimated
06:49AM 35.0538 107.9445 288° West  Level Estimated
06:50AM 35.0869 107.8205 288° West  Level Estimated
06:51AM 35.1198 107.6964 288° West  Level Estimated
06:52AM 35.1526 107.5722 288° West  Level Estimated
06:53AM 35.1852 107.4478 288° West  Level Estimated
06:54AM 35.2177 107.3234 288° West  Level Estimated
06:55AM 35.2501 107.1989 288° West  Level Estimated
06:56AM 35.2824 107.0743 288° West  Level Estimated
06:57AM 35.3145 106.9496 288° West  Level Estimated
06:58AM 35.3465 106.8248 287° West  Level Estimated
06:59AM 35.3784 106.6999 287° West  Level Estimated
07:00AM 35.4102 106.5749 287° West  Level Estimated
07:01AM 35.4418 106.4498 287° West  Level Estimated
07:02AM 35.4733 106.3246 287° West  Level Estimated
07:03AM 35.5047 106.1993 287° West  Level Estimated
07:04AM 35.5359 106.0739 287° West  Level Estimated
07:05AM 35.5670 105.9484 287° West  Level Estimated
07:06AM 35.5980 105.8228 287° West  Level Estimated
07:07AM 35.6288 105.6971 287° West  Level Estimated
07:08AM 35.6595 105.5713 287° West  Level Estimated
07:09AM 35.6901 105.4454 287° West  Level Estimated
07:10AM 35.7206 105.3195 287° West  Level Estimated
07:11AM 35.7509 105.1934 287° West  Level Estimated
07:12AM 35.7811 105.0672 286° West  Level Estimated
07:13AM 35.8111 104.9409 286° West  Level Estimated
07:14AM 35.8410 104.8146 286° West  Level Estimated
07:15AM 35.8708 104.6881 286° West  Level Estimated
07:16AM 35.9007 104.5607 286° West  Level Estimated
07:17AM 35.9304 104.4332 286° West  Level Estimated
07:18AM 35.9600 104.3056 286° West  Level Estimated
07:19AM 35.9895 104.1779 286° West  Level Estimated
07:20AM 36.0188 104.0501 286° West  Level Estimated
07:21AM 36.0480 103.9222 286° West  Level Estimated
07:22AM 36.0770 103.7943 286° West  Level Estimated
07:23AM 36.1059 103.6662 286° West  Level Estimated
07:24AM 36.1170 103.6170 286° West  Level Estimated
07:25AM 36.1170 103.6170 North  Level Estimated
07:26AM 36.1170 103.6170 North  Level Estimated
07:27AM 36.1170 103.6170 North  Level Estimated
07:28AM 36.1170 103.6170 North  Level Estimated
07:29AM 36.1170 103.6170 North  Level Estimated
07:30AM 36.1170 103.6170 North  Level Estimated
07:31AM 36.1170 103.6170 North  Level Estimated
07:32AM 36.1170 103.6170 North  Level Estimated
07:33AM 36.1170 103.6170 North  Level Estimated